createdAt,value
2023-01-12T00:01:31.973Z,100.00
2023-01-12T00:03:58.837Z,100.00
2023-01-12T00:06:25.807Z,100.00
2023-01-12T00:08:53.141Z,100.00
2023-01-12T00:11:20.609Z,100.00
2023-01-12T00:13:48.005Z,100.00
2023-01-12T00:16:35.000Z,100.00
2023-01-12T00:19:07.107Z,100.00
2023-01-12T00:21:45.021Z,100.00
2023-01-12T00:24:11.757Z,100.00
2023-01-12T00:26:38.300Z,100.00
2023-01-12T00:29:04.890Z,100.00
2023-01-12T00:31:31.646Z,100.00
2023-01-12T00:33:58.251Z,100.00
2023-01-12T00:36:24.806Z,100.00
2023-01-12T00:38:51.424Z,100.00
2023-01-12T00:41:37.996Z,100.00
2023-01-12T00:44:24.808Z,100.00
2023-01-12T00:46:51.471Z,100.00
2023-01-12T00:49:18.113Z,100.00
2023-01-12T00:51:44.717Z,100.00
2023-01-12T00:54:11.524Z,100.00
2023-01-12T00:56:39.386Z,100.00
2023-01-12T00:59:06.374Z,100.00
2023-01-12T01:01:34.452Z,100.00
2023-01-12T01:04:01.555Z,100.00
2023-01-12T01:06:28.136Z,100.00
2023-01-12T01:08:54.705Z,100.00
2023-01-12T01:11:21.284Z,100.00
2023-01-12T01:13:49.051Z,100.00
2023-01-12T01:16:17.249Z,100.00
2023-01-12T01:18:44.085Z,100.00
2023-01-12T01:21:12.613Z,100.00
2023-01-12T01:23:40.590Z,100.00
2023-01-12T01:26:16.795Z,100.00
2023-01-12T01:28:44.576Z,100.00
2023-01-12T01:31:17.387Z,100.00
2023-01-12T01:33:44.371Z,100.00
2023-01-12T01:36:11.938Z,100.00
2023-01-12T01:38:39.178Z,100.00
2023-01-12T01:41:07.316Z,100.00
2023-01-12T01:43:51.295Z,100.00
2023-01-12T01:46:43.593Z,100.00
2023-01-12T01:49:29.162Z,100.00
2023-01-12T01:52:07.708Z,100.00
2023-01-12T01:54:40.801Z,100.00
2023-01-12T01:57:09.734Z,100.00
2023-01-12T01:59:38.729Z,100.00
2023-01-12T02:02:06.270Z,100.00
2023-01-12T02:04:33.172Z,100.00
2023-01-12T02:07:02.124Z,100.00
2023-01-12T02:09:30.751Z,100.00
2023-01-12T02:12:15.859Z,100.00
2023-01-12T02:15:04.603Z,100.00
2023-01-12T02:17:49.610Z,100.00
2023-01-12T02:20:28.790Z,100.00
2023-01-12T02:23:26.414Z,100.00
2023-01-12T02:26:28.936Z,100.00
2023-01-12T02:29:29.281Z,100.00
2023-01-12T02:32:14.137Z,100.00
2023-01-12T02:34:53.979Z,100.00
2023-01-12T02:37:42.050Z,100.00
2023-01-12T02:40:29.611Z,100.00
2023-01-12T02:43:03.423Z,100.00
2023-01-12T02:45:48.439Z,100.00
2023-01-12T02:48:23.734Z,100.00
2023-01-12T02:51:33.384Z,100.00
2023-01-12T02:54:04.444Z,100.00
2023-01-12T02:56:38.548Z,100.00
2023-01-12T02:59:11.101Z,100.00
2023-01-12T03:01:37.920Z,100.00
2023-01-12T03:04:07.725Z,100.00
2023-01-12T03:06:42.684Z,100.00
2023-01-12T03:09:10.037Z,100.00
2023-01-12T03:11:40.543Z,100.00
2023-01-12T03:14:08.926Z,100.00
2023-01-12T03:16:38.373Z,100.00
2023-01-12T03:19:13.733Z,100.00
2023-01-12T03:21:47.347Z,100.00
2023-01-12T03:24:25.380Z,100.00
2023-01-12T03:27:08.069Z,100.00
2023-01-12T03:29:38.209Z,100.00
2023-01-12T03:32:06.439Z,100.00
2023-01-12T03:34:34.508Z,100.00
2023-01-12T03:37:12.838Z,100.00
2023-01-12T03:39:48.506Z,100.00
2023-01-12T03:42:26.336Z,100.00
2023-01-12T03:45:28.576Z,100.00
2023-01-12T03:47:58.663Z,100.00
2023-01-12T03:50:30.661Z,100.00
2023-01-12T03:53:02.171Z,100.00
2023-01-12T03:55:32.018Z,100.00
2023-01-12T03:57:59.459Z,100.00
2023-01-12T04:00:27.698Z,100.00
2023-01-12T04:03:24.639Z,100.00
2023-01-12T04:05:51.289Z,100.00
2023-01-12T04:08:18.161Z,100.00
2023-01-12T04:10:44.759Z,100.00
2023-01-12T04:13:11.361Z,100.00
2023-01-12T04:15:42.335Z,100.00
2023-01-12T04:18:09.922Z,100.00
2023-01-12T04:20:36.841Z,100.00
2023-01-12T04:23:03.604Z,100.00
2023-01-12T04:25:31.399Z,100.00
2023-01-12T04:28:04.979Z,100.00
2023-01-12T04:30:33.250Z,100.00
2023-01-12T04:33:01.159Z,100.00
2023-01-12T04:35:27.828Z,100.00
2023-01-12T04:37:54.865Z,100.00
2023-01-12T04:40:21.517Z,100.00
2023-01-12T04:43:10.974Z,100.00
2023-01-12T04:45:43.506Z,100.00
2023-01-12T04:48:13.093Z,100.00
2023-01-12T04:50:40.814Z,100.00
2023-01-12T04:53:09.566Z,100.00
2023-01-12T04:55:38.077Z,100.00
2023-01-12T04:58:04.750Z,100.00
2023-01-12T05:00:31.463Z,100.00
2023-01-12T05:03:02.065Z,100.00
2023-01-12T05:05:32.949Z,100.00
2023-01-12T05:08:20.102Z,100.00
2023-01-12T05:11:05.248Z,100.00
2023-01-12T05:13:32.231Z,100.00
2023-01-12T05:16:11.514Z,100.00
2023-01-12T05:18:38.177Z,100.00
2023-01-12T05:21:05.104Z,100.00
2023-01-12T05:23:31.694Z,100.00
2023-01-12T05:26:02.505Z,100.00
2023-01-12T05:28:30.257Z,100.00
2023-01-12T05:31:09.475Z,100.00
2023-01-12T05:33:38.323Z,100.00
2023-01-12T05:36:10.025Z,100.00
2023-01-12T05:38:36.838Z,100.00
2023-01-12T05:41:05.166Z,100.00
2023-01-12T05:43:50.448Z,100.00
2023-01-12T05:46:21.094Z,100.00
2023-01-12T05:48:48.143Z,100.00
2023-01-12T05:51:15.623Z,100.00
2023-01-12T05:53:42.271Z,100.00
2023-01-12T05:56:16.169Z,100.00
2023-01-12T05:58:42.846Z,100.00
2023-01-12T06:01:10.549Z,100.00
2023-01-12T06:03:37.603Z,100.00
2023-01-12T06:06:04.686Z,100.00
2023-01-12T06:08:31.488Z,100.00
2023-01-12T06:11:04.258Z,100.00
2023-01-12T06:13:49.152Z,100.00
2023-01-12T06:16:15.980Z,100.00
2023-01-12T06:18:42.595Z,100.00
2023-01-12T06:21:10.319Z,100.00
2023-01-12T06:23:37.183Z,100.00
2023-01-12T06:26:06.048Z,100.00
2023-01-12T06:28:32.731Z,100.00
2023-01-12T06:31:01.169Z,100.00
2023-01-12T06:33:28.644Z,100.00
2023-01-12T06:35:56.116Z,100.00
2023-01-12T06:38:25.284Z,100.00
2023-01-12T06:40:52.071Z,100.00
2023-01-12T06:43:19.189Z,100.00
2023-01-12T06:45:46.019Z,100.00
2023-01-12T06:48:12.616Z,100.00
2023-01-12T06:50:39.231Z,100.00
2023-01-12T06:53:07.149Z,100.00
2023-01-12T06:55:33.803Z,100.00
2023-01-12T06:58:04.441Z,100.00
2023-01-12T07:00:31.989Z,100.00
2023-01-12T07:02:58.751Z,100.00
2023-01-12T07:05:25.499Z,100.00
2023-01-12T07:07:58.601Z,100.00
2023-01-12T07:10:25.243Z,100.00
2023-01-12T07:12:51.919Z,100.00
2023-01-12T07:15:18.536Z,100.00
2023-01-12T07:17:45.148Z,100.00
2023-01-12T07:20:11.931Z,100.00
2023-01-12T07:22:39.364Z,100.00
2023-01-12T07:25:06.382Z,100.00
2023-01-12T07:27:32.928Z,100.00
2023-01-12T07:29:59.519Z,100.00
2023-01-12T07:32:27.422Z,100.00
2023-01-12T07:34:54.069Z,100.00
2023-01-12T07:37:20.661Z,100.00
2023-01-12T07:39:47.251Z,100.00
2023-01-12T07:42:26.039Z,100.00
2023-01-12T07:44:53.153Z,100.00
2023-01-12T07:47:19.995Z,100.00
2023-01-12T07:49:46.782Z,100.00
2023-01-12T07:52:14.188Z,100.00
2023-01-12T07:54:40.837Z,100.00
2023-01-12T07:57:10.557Z,100.00
2023-01-12T07:59:37.162Z,100.00
2023-01-12T08:02:04.615Z,100.00
2023-01-12T08:04:31.359Z,100.00
2023-01-12T08:06:57.959Z,100.00
2023-01-12T08:09:24.654Z,100.00
2023-01-12T08:11:51.269Z,100.00
2023-01-12T08:14:33.399Z,100.00
2023-01-12T08:17:02.269Z,100.00
2023-01-12T08:19:37.191Z,100.00
2023-01-12T08:22:07.970Z,100.00
2023-01-12T08:24:40.083Z,100.00
2023-01-12T08:27:09.019Z,100.00
2023-01-12T08:29:44.125Z,100.00
2023-01-12T08:32:13.358Z,100.00
2023-01-12T08:34:42.153Z,100.00
2023-01-12T08:37:12.868Z,100.00
2023-01-12T08:39:39.961Z,100.00
2023-01-12T08:42:07.064Z,99.39
2023-01-12T08:44:36.413Z,100.00
2023-01-12T08:47:05.119Z,100.00
2023-01-12T08:49:33.604Z,100.00
2023-01-12T08:52:00.320Z,100.00
2023-01-12T08:54:27.131Z,100.00
2023-01-12T08:56:54.738Z,99.68
2023-01-12T08:59:21.506Z,100.00
2023-01-12T09:01:48.750Z,100.00
2023-01-12T09:04:15.552Z,98.18
2023-01-12T09:06:45.025Z,98.58
2023-01-12T09:09:15.515Z,100.00
2023-01-12T09:11:43.402Z,96.73
2023-01-12T09:14:11.913Z,97.54
2023-01-12T09:16:38.821Z,94.42
2023-01-12T09:19:05.900Z,95.21
2023-01-12T09:21:33.276Z,95.18
2023-01-12T09:23:59.897Z,93.22
2023-01-12T09:26:32.308Z,92.30
2023-01-12T09:29:00.101Z,93.02
2023-01-12T09:31:28.381Z,91.90
2023-01-12T09:33:55.246Z,91.71
2023-01-12T09:36:33.599Z,89.38
2023-01-12T09:39:01.487Z,88.54
2023-01-12T09:41:50.537Z,91.36
2023-01-12T09:44:47.219Z,89.77
2023-01-12T09:47:36.449Z,91.09
2023-01-12T09:50:16.424Z,91.56
2023-01-12T09:52:58.042Z,92.09
2023-01-12T09:55:27.530Z,91.73
2023-01-12T09:58:27.033Z,88.47
2023-01-12T10:00:59.352Z,88.33
2023-01-12T10:03:29.384Z,88.23
2023-01-12T10:05:58.875Z,88.45
2023-01-12T10:08:36.535Z,86.66
2023-01-12T10:11:12.119Z,83.56
2023-01-12T10:13:52.430Z,80.22
2023-01-12T10:16:28.736Z,76.97
2023-01-12T10:19:01.243Z,76.62
2023-01-12T10:21:31.784Z,75.62
2023-01-12T10:23:58.623Z,75.15
2023-01-12T10:26:29.034Z,73.15
2023-01-12T10:28:56.282Z,68.34
2023-01-12T10:31:25.428Z,69.03
2023-01-12T10:34:07.032Z,69.08
2023-01-12T10:36:57.972Z,67.53
2023-01-12T10:39:39.267Z,69.37
2023-01-12T10:42:42.286Z,72.65
2023-01-12T10:45:17.327Z,70.28
2023-01-12T10:47:45.880Z,68.62
2023-01-12T10:50:23.374Z,66.98
2023-01-12T10:53:00.417Z,68.44
2023-01-12T10:55:34.851Z,67.56
2023-01-12T10:58:01.877Z,71.23
2023-01-12T11:00:29.873Z,67.65
2023-01-12T11:02:56.822Z,65.51
2023-01-12T11:05:31.432Z,65.68
2023-01-12T11:07:58.446Z,68.71
2023-01-12T11:10:35.701Z,68.24
2023-01-12T11:13:06.238Z,64.45
2023-01-12T11:15:38.915Z,65.14
2023-01-12T11:18:29.889Z,65.93
2023-01-12T11:21:10.751Z,67.33
2023-01-12T11:24:10.942Z,62.21
2023-01-12T11:26:49.271Z,64.26
2023-01-12T11:29:34.120Z,65.03
2023-01-12T11:32:08.581Z,63.22
2023-01-12T11:34:41.439Z,64.89
2023-01-12T11:37:13.716Z,66.51
2023-01-12T11:39:42.451Z,65.23
2023-01-12T11:42:40.074Z,68.52
2023-01-12T11:45:09.559Z,69.99
2023-01-12T11:47:44.572Z,67.62
2023-01-12T11:50:21.755Z,65.12
2023-01-12T11:52:48.397Z,64.45
2023-01-12T11:55:21.095Z,65.35
2023-01-12T11:57:58.348Z,65.43
2023-01-12T12:00:35.249Z,68.21
2023-01-12T12:03:40.373Z,67.43
2023-01-12T12:06:28.987Z,67.60
2023-01-12T12:09:17.254Z,69.17
2023-01-12T12:11:52.815Z,67.74
2023-01-12T12:14:31.523Z,69.47
2023-01-12T12:17:20.598Z,69.20
2023-01-12T12:20:12.464Z,66.98
2023-01-12T12:22:57.284Z,67.11
2023-01-12T12:25:47.870Z,69.69
2023-01-12T12:28:30.024Z,69.53
2023-01-12T12:31:07.857Z,71.32
2023-01-12T12:33:52.627Z,72.14
2023-01-12T12:37:04.358Z,72.57
2023-01-12T12:39:49.691Z,75.08
2023-01-12T12:43:04.408Z,72.88
2023-01-12T12:45:48.341Z,71.76
2023-01-12T12:48:29.832Z,74.67
2023-01-12T12:51:08.950Z,72.01
2023-01-12T12:53:45.410Z,73.83
2023-01-12T12:56:15.821Z,73.43
2023-01-12T12:58:46.673Z,72.33
2023-01-12T13:01:25.404Z,73.87
2023-01-12T13:03:54.691Z,74.47
2023-01-12T13:06:39.576Z,74.16
2023-01-12T13:09:10.523Z,73.52
2023-01-12T13:11:54.653Z,75.88
2023-01-12T13:14:26.953Z,72.26
2023-01-12T13:16:55.821Z,75.68
2023-01-12T13:19:36.536Z,76.19
2023-01-12T13:22:40.670Z,73.21
2023-01-12T13:25:10.029Z,75.65
2023-01-12T13:28:01.132Z,76.18
2023-01-12T13:30:30.741Z,74.77
2023-01-12T13:33:23.355Z,74.05
2023-01-12T13:35:50.003Z,73.41
2023-01-12T13:38:43.665Z,73.93
2023-01-12T13:41:13.245Z,75.41
2023-01-12T13:43:57.962Z,74.20
2023-01-12T13:46:28.413Z,76.04
2023-01-12T13:48:55.891Z,75.49
2023-01-12T13:51:40.751Z,75.42
2023-01-12T13:54:11.815Z,76.39
2023-01-12T13:56:39.257Z,79.34
2023-01-12T13:59:08.067Z,77.50
2023-01-12T14:01:41.225Z,78.95
2023-01-12T14:04:14.146Z,77.29
2023-01-12T14:06:55.928Z,79.44
2023-01-12T14:09:36.468Z,81.32
2023-01-12T14:12:08.947Z,80.31
2023-01-12T14:15:32.080Z,78.65
2023-01-12T14:18:09.119Z,80.96
2023-01-12T14:20:46.777Z,80.92
2023-01-12T14:23:28.582Z,80.45
2023-01-12T14:26:04.047Z,82.58
2023-01-12T14:28:31.650Z,82.67
2023-01-12T14:30:58.683Z,83.47
2023-01-12T14:33:27.682Z,82.25
2023-01-12T14:35:57.440Z,84.72
2023-01-12T14:38:27.641Z,83.92
2023-01-12T14:41:06.827Z,84.12
2023-01-12T14:43:54.104Z,85.13
2023-01-12T14:46:31.012Z,85.39
2023-01-12T14:49:17.422Z,86.74
2023-01-12T14:52:17.254Z,84.55
2023-01-12T14:54:45.077Z,81.99
2023-01-12T14:57:30.989Z,81.64
2023-01-12T14:59:57.804Z,82.20
2023-01-12T15:02:31.036Z,84.11
2023-01-12T15:05:04.492Z,86.63
2023-01-12T15:07:37.745Z,89.01
2023-01-12T15:10:24.533Z,86.04
2023-01-12T15:12:54.377Z,86.59
2023-01-12T15:15:25.527Z,88.92
2023-01-12T15:18:13.469Z,87.93
2023-01-12T15:21:01.009Z,86.51
2023-01-12T15:23:50.270Z,88.03
2023-01-12T15:26:17.036Z,90.16
2023-01-12T15:28:44.796Z,90.55
2023-01-12T15:31:21.474Z,89.26
2023-01-12T15:33:48.322Z,91.14
2023-01-12T15:36:14.958Z,92.33
2023-01-12T15:38:41.573Z,89.97
2023-01-12T15:41:15.795Z,91.99
2023-01-12T15:43:42.370Z,90.70
2023-01-12T15:46:18.101Z,93.04
2023-01-12T15:48:44.709Z,92.58
2023-01-12T15:51:15.877Z,92.13
2023-01-12T15:53:45.192Z,92.56
2023-01-12T15:56:15.901Z,92.00
2023-01-12T15:58:43.673Z,93.78
2023-01-12T16:01:19.819Z,92.80
2023-01-12T16:04:15.044Z,91.51
2023-01-12T16:06:37.832Z,92.49
2023-01-12T16:09:06.223Z,92.42
2023-01-12T16:11:33.950Z,93.17
2023-01-12T16:14:01.653Z,95.16
2023-01-12T16:16:29.345Z,94.21
2023-01-12T16:19:00.194Z,95.05
2023-01-12T16:21:29.233Z,93.55
2023-01-12T16:23:58.514Z,93.84
2023-01-12T16:26:30.171Z,95.37
2023-01-12T16:28:58.570Z,96.38
2023-01-12T16:31:27.079Z,96.71
2023-01-12T16:33:54.814Z,96.53
2023-01-12T16:36:22.882Z,95.37
2023-01-12T16:38:51.684Z,95.86
2023-01-12T16:41:20.040Z,95.34
2023-01-12T16:43:48.041Z,93.97
2023-01-12T16:46:16.634Z,95.41
2023-01-12T16:48:44.104Z,94.25
2023-01-12T16:51:14.637Z,93.90
2023-01-12T16:53:47.014Z,94.96
2023-01-12T16:56:16.279Z,96.49
2023-01-12T16:58:48.827Z,96.46
2023-01-12T17:01:19.137Z,97.60
2023-01-12T17:03:46.185Z,98.12
2023-01-12T17:06:15.515Z,97.95
2023-01-12T17:08:42.889Z,98.10
2023-01-12T17:11:12.380Z,98.30
2023-01-12T17:13:39.648Z,98.90
2023-01-12T17:16:11.556Z,99.94
2023-01-12T17:18:39.454Z,99.87
2023-01-12T17:21:09.369Z,97.73
2023-01-12T17:23:36.222Z,95.73
2023-01-12T17:26:05.670Z,94.50
2023-01-12T17:28:35.003Z,94.24
2023-01-12T17:31:09.535Z,93.21
2023-01-12T17:33:37.267Z,93.84
2023-01-12T17:36:08.793Z,95.88
2023-01-12T17:38:37.052Z,96.85
2023-01-12T17:41:33.931Z,95.76
2023-01-12T17:44:02.461Z,95.90
2023-01-12T17:46:29.902Z,95.30
2023-01-12T17:49:01.553Z,97.43
2023-01-12T17:51:28.437Z,95.26
2023-01-12T17:53:56.259Z,96.69
2023-01-12T17:56:24.376Z,97.54
2023-01-12T17:58:52.443Z,97.20
2023-01-12T18:01:22.190Z,97.13
2023-01-12T18:03:48.907Z,97.10
2023-01-12T18:06:25.942Z,96.19
2023-01-12T18:08:55.145Z,96.14
2023-01-12T18:11:22.341Z,97.25
2023-01-12T18:13:48.939Z,96.04
2023-01-12T18:16:16.746Z,97.70
2023-01-12T18:18:44.150Z,98.58
2023-01-12T18:21:26.149Z,98.99
2023-01-12T18:23:53.643Z,99.59
2023-01-12T18:26:25.208Z,100.00
2023-01-12T18:28:56.099Z,99.37
2023-01-12T18:31:25.396Z,99.84
2023-01-12T18:33:55.287Z,100.00
2023-01-12T18:36:24.765Z,100.00
2023-01-12T18:38:53.806Z,100.00
2023-01-12T18:41:40.834Z,99.54
2023-01-12T18:44:08.815Z,98.80
2023-01-12T18:46:57.476Z,99.23
2023-01-12T18:49:26.747Z,98.43
2023-01-12T18:52:11.927Z,99.71
2023-01-12T18:54:44.129Z,99.44
2023-01-12T18:57:12.793Z,99.84
2023-01-12T18:59:41.693Z,100.00
2023-01-12T19:02:11.911Z,100.00
2023-01-12T19:05:01.870Z,100.00
2023-01-12T19:07:31.743Z,100.00
2023-01-12T19:09:59.294Z,100.00
2023-01-12T19:12:26.908Z,100.00
2023-01-12T19:15:12.096Z,100.00
2023-01-12T19:17:42.138Z,100.00
2023-01-12T19:20:14.298Z,100.00
2023-01-12T19:22:59.404Z,100.00
2023-01-12T19:25:45.414Z,100.00
2023-01-12T19:28:32.764Z,100.00
2023-01-12T19:31:01.168Z,100.00
2023-01-12T19:33:28.104Z,100.00
2023-01-12T19:35:54.785Z,100.00
2023-01-12T19:38:21.673Z,100.00
2023-01-12T19:40:48.260Z,100.00
2023-01-12T19:43:25.180Z,100.00
2023-01-12T19:45:54.448Z,100.00
2023-01-12T19:48:23.592Z,100.00
2023-01-12T19:50:51.166Z,100.00
2023-01-12T19:53:20.992Z,100.00
2023-01-12T19:55:49.984Z,100.00
2023-01-12T19:58:16.630Z,100.00
2023-01-12T20:00:45.035Z,100.00
2023-01-12T20:03:14.361Z,100.00
2023-01-12T20:05:42.123Z,100.00
2023-01-12T20:08:09.665Z,100.00
2023-01-12T20:10:38.109Z,100.00
2023-01-12T20:13:06.395Z,100.00
2023-01-12T20:15:34.311Z,100.00
2023-01-12T20:18:03.041Z,100.00
2023-01-12T20:20:30.197Z,100.00
2023-01-12T20:22:57.334Z,100.00
2023-01-12T20:25:27.262Z,100.00
2023-01-12T20:27:54.720Z,100.00
2023-01-12T20:30:36.814Z,100.00
2023-01-12T20:33:04.927Z,100.00
2023-01-12T20:35:32.380Z,100.00
2023-01-12T20:37:59.009Z,100.00
2023-01-12T20:40:25.641Z,100.00
2023-01-12T20:42:52.282Z,100.00
2023-01-12T20:45:19.058Z,100.00
2023-01-12T20:47:45.877Z,100.00
2023-01-12T20:50:14.079Z,100.00
2023-01-12T20:52:41.558Z,100.00
2023-01-12T20:55:08.723Z,100.00
2023-01-12T20:57:41.677Z,100.00
2023-01-12T21:00:10.604Z,100.00
2023-01-12T21:02:37.824Z,100.00
2023-01-12T21:05:04.800Z,100.00
2023-01-12T21:07:31.595Z,100.00
2023-01-12T21:09:58.223Z,100.00
2023-01-12T21:12:27.392Z,100.00
2023-01-12T21:14:54.445Z,100.00
2023-01-12T21:17:21.557Z,100.00
2023-01-12T21:19:48.297Z,100.00
2023-01-12T21:22:15.110Z,99.22
2023-01-12T21:24:41.787Z,100.00
2023-01-12T21:27:08.393Z,98.79
2023-01-12T21:29:35.286Z,99.17
2023-01-12T21:32:01.980Z,97.99
2023-01-12T21:34:28.588Z,100.00
2023-01-12T21:36:55.190Z,100.00
2023-01-12T21:39:21.747Z,100.00
2023-01-12T21:42:06.902Z,100.00
2023-01-12T21:44:33.458Z,100.00
2023-01-12T21:47:00.072Z,100.00
2023-01-12T21:49:26.655Z,100.00
2023-01-12T21:51:53.225Z,100.00
2023-01-12T21:54:19.896Z,99.02
2023-01-12T21:56:46.488Z,100.00
2023-01-12T21:59:13.213Z,100.00
2023-01-12T22:01:39.965Z,100.00
2023-01-12T22:04:06.764Z,100.00
2023-01-12T22:06:33.401Z,100.00
2023-01-12T22:08:59.954Z,96.77
2023-01-12T22:11:26.642Z,98.64
2023-01-12T22:13:53.229Z,100.00
2023-01-12T22:16:19.933Z,99.63
2023-01-12T22:18:52.432Z,98.21
2023-01-12T22:21:20.850Z,99.93
2023-01-12T22:23:47.949Z,100.00
2023-01-12T22:26:16.304Z,100.00
2023-01-12T22:28:44.603Z,99.45
2023-01-12T22:31:13.331Z,100.00
2023-01-12T22:33:43.157Z,98.84
2023-01-12T22:36:09.853Z,96.87
2023-01-12T22:38:36.470Z,96.74
2023-01-12T22:41:05.024Z,96.46
2023-01-12T22:43:31.788Z,96.64
2023-01-12T22:45:58.440Z,95.41
2023-01-12T22:48:25.952Z,94.68
2023-01-12T22:50:55.923Z,95.72
2023-01-12T22:53:24.049Z,95.40
2023-01-12T22:55:51.720Z,95.84
2023-01-12T22:58:18.755Z,97.01
2023-01-12T23:00:45.643Z,96.39
2023-01-12T23:03:13.703Z,94.50
2023-01-12T23:05:49.247Z,93.73
2023-01-12T23:08:16.593Z,94.02
2023-01-12T23:10:44.267Z,93.12
2023-01-12T23:13:19.306Z,93.57
2023-01-12T23:15:53.344Z,94.27
2023-01-12T23:18:22.219Z,95.61
2023-01-12T23:20:49.364Z,95.27
2023-01-12T23:23:18.104Z,94.25
2023-01-12T23:25:46.609Z,93.50
2023-01-12T23:28:14.390Z,93.57
2023-01-12T23:30:41.131Z,94.27
2023-01-12T23:33:07.857Z,95.53
2023-01-12T23:35:39.860Z,94.82
2023-01-12T23:38:07.677Z,94.04
2023-01-12T23:40:34.230Z,94.99
2023-01-12T23:43:01.448Z,96.45
2023-01-12T23:45:28.401Z,96.35
2023-01-12T23:47:55.058Z,94.89
2023-01-12T23:50:21.643Z,95.27
2023-01-12T23:52:50.017Z,94.27
2023-01-12T23:55:17.179Z,95.14
2023-01-12T23:57:47.269Z,92.82
